Terminal Aerodrome Forecast
Issued by NWS Charleston, WV

Current Version | Previous Version | Text Only | Print | Product List | Glossary Off
Versions: 1 2 3 4 5 6 7 8 9 10 11 12 13 14 15 16 17 18

000
FTUS41 KRLX 242324 AAA
TAFPKB
TAF AMD
KPKB 242324Z 2423/2524 28005KT P6SM FEW050
     FM250100 28004KT P6SM SCT250
     FM251300 VRB03KT P6SM FEW045
     FM251700 26007KT P6SM BKN035=

USA.gov is the U.S. government's official web portal to all federal, state and local government web resources and services.